sensor_id;sensor_type;location;lat;lon;timestamp;temperature;humidity
64111;DHT22;50401;48.188;11.566;2023-03-16T00:02:02;4.86;75.61
64111;DHT22;50401;48.188;11.566;2023-03-16T00:04:27;4.85;75.86
64111;DHT22;50401;48.188;11.566;2023-03-16T00:06:54;4.82;75.84
64111;DHT22;50401;48.188;11.566;2023-03-16T00:09:20;4.82;75.87
64111;DHT22;50401;48.188;11.566;2023-03-16T00:11:45;4.82;75.89
64111;DHT22;50401;48.188;11.566;2023-03-16T00:14:10;4.85;75.95
64111;DHT22;50401;48.188;11.566;2023-03-16T00:16:36;4.91;75.84
64111;DHT22;50401;48.188;11.566;2023-03-16T00:19:01;4.84;75.76
64111;DHT22;50401;48.188;11.566;2023-03-16T00:21:27;4.79;75.76
64111;DHT22;50401;48.188;11.566;2023-03-16T00:23:54;4.77;75.77
64111;DHT22;50401;48.188;11.566;2023-03-16T00:26:20;4.78;75.67
64111;DHT22;50401;48.188;11.566;2023-03-16T00:28:46;4.75;75.84
64111;DHT22;50401;48.188;11.566;2023-03-16T00:31:13;4.72;75.83
64111;DHT22;50401;48.188;11.566;2023-03-16T00:33:39;4.71;76.00
64111;DHT22;50401;48.188;11.566;2023-03-16T00:36:07;4.67;76.06
64111;DHT22;50401;48.188;11.566;2023-03-16T00:38:35;4.69;76.00
64111;DHT22;50401;48.188;11.566;2023-03-16T00:41:02;4.64;76.18
64111;DHT22;50401;48.188;11.566;2023-03-16T00:43:29;4.67;76.10
64111;DHT22;50401;48.188;11.566;2023-03-16T00:45:59;4.65;75.95
64111;DHT22;50401;48.188;11.566;2023-03-16T00:48:37;4.64;75.93
64111;DHT22;50401;48.188;11.566;2023-03-16T00:51:05;4.57;75.97
64111;DHT22;50401;48.188;11.566;2023-03-16T00:53:35;4.49;76.16
64111;DHT22;50401;48.188;11.566;2023-03-16T00:56:04;4.53;76.46
64111;DHT22;50401;48.188;11.566;2023-03-16T00:58:33;4.49;76.60
64111;DHT22;50401;48.188;11.566;2023-03-16T01:01:09;4.44;76.80
64111;DHT22;50401;48.188;11.566;2023-03-16T01:03:35;4.46;76.96
64111;DHT22;50401;48.188;11.566;2023-03-16T01:06:10;4.39;76.79
64111;DHT22;50401;48.188;11.566;2023-03-16T01:08:37;4.42;76.94
64111;DHT22;50401;48.188;11.566;2023-03-16T01:11:04;4.34;77.01
64111;DHT22;50401;48.188;11.566;2023-03-16T01:13:30;4.37;77.20
64111;DHT22;50401;48.188;11.566;2023-03-16T01:15:57;4.40;77.03
64111;DHT22;50401;48.188;11.566;2023-03-16T01:18:22;4.33;77.05
64111;DHT22;50401;48.188;11.566;2023-03-16T01:20:48;4.32;77.13
64111;DHT22;50401;48.188;11.566;2023-03-16T01:23:19;4.28;77.27
64111;DHT22;50401;48.188;11.566;2023-03-16T01:25:44;4.25;77.43
64111;DHT22;50401;48.188;11.566;2023-03-16T01:28:22;4.34;77.25
64111;DHT22;50401;48.188;11.566;2023-03-16T01:30:53;4.29;77.36
64111;DHT22;50401;48.188;11.566;2023-03-16T01:33:20;4.26;77.40
64111;DHT22;50401;48.188;11.566;2023-03-16T01:35:57;4.25;77.42
64111;DHT22;50401;48.188;11.566;2023-03-16T01:38:23;4.22;77.29
64111;DHT22;50401;48.188;11.566;2023-03-16T01:40:50;4.23;77.45
64111;DHT22;50401;48.188;11.566;2023-03-16T01:43:17;4.22;77.65
64111;DHT22;50401;48.188;11.566;2023-03-16T01:48:27;4.19;77.64
64111;DHT22;50401;48.188;11.566;2023-03-16T01:50:54;4.25;77.35
64111;DHT22;50401;48.188;11.566;2023-03-16T01:53:21;4.10;77.52
64111;DHT22;50401;48.188;11.566;2023-03-16T01:55:49;4.05;77.63
64111;DHT22;50401;48.188;11.566;2023-03-16T01:58:15;3.99;77.64
64111;DHT22;50401;48.188;11.566;2023-03-16T02:00:41;3.94;78.02
64111;DHT22;50401;48.188;11.566;2023-03-16T02:03:12;3.91;78.09
64111;DHT22;50401;48.188;11.566;2023-03-16T02:06:01;3.63;78.52
64111;DHT22;50401;48.188;11.566;2023-03-16T02:08:29;3.56;79.46
64111;DHT22;50401;48.188;11.566;2023-03-16T02:10:55;3.70;79.07
64111;DHT22;50401;48.188;11.566;2023-03-16T02:13:22;3.85;78.68
64111;DHT22;50401;48.188;11.566;2023-03-16T02:15:48;3.85;78.52
64111;DHT22;50401;48.188;11.566;2023-03-16T02:18:15;3.91;78.21
64111;DHT22;50401;48.188;11.566;2023-03-16T02:20:51;3.91;77.72
64111;DHT22;50401;48.188;11.566;2023-03-16T02:23:20;3.95;77.42
64111;DHT22;50401;48.188;11.566;2023-03-16T02:26:14;3.91;77.22
64111;DHT22;50401;48.188;11.566;2023-03-16T02:31:38;3.87;77.25
64111;DHT22;50401;48.188;11.566;2023-03-16T02:34:03;3.85;77.32
64111;DHT22;50401;48.188;11.566;2023-03-16T02:36:29;3.81;77.34
64111;DHT22;50401;48.188;11.566;2023-03-16T02:38:56;3.90;77.15
64111;DHT22;50401;48.188;11.566;2023-03-16T02:41:21;3.82;77.10
64111;DHT22;50401;48.188;11.566;2023-03-16T02:43:54;3.75;77.24
64111;DHT22;50401;48.188;11.566;2023-03-16T02:46:25;3.71;77.29
64111;DHT22;50401;48.188;11.566;2023-03-16T02:48:57;3.74;77.49
64111;DHT22;50401;48.188;11.566;2023-03-16T02:51:23;3.70;77.50
64111;DHT22;50401;48.188;11.566;2023-03-16T02:53:48;3.60;77.79
64111;DHT22;50401;48.188;11.566;2023-03-16T02:56:14;3.50;78.14
64111;DHT22;50401;48.188;11.566;2023-03-16T02:58:39;3.46;78.39
64111;DHT22;50401;48.188;11.566;2023-03-16T03:01:05;3.50;78.56
64111;DHT22;50401;48.188;11.566;2023-03-16T03:03:30;3.36;78.83
64111;DHT22;50401;48.188;11.566;2023-03-16T03:05:58;3.39;79.00
64111;DHT22;50401;48.188;11.566;2023-03-16T03:08:24;3.22;79.56
64111;DHT22;50401;48.188;11.566;2023-03-16T03:10:49;3.32;79.43
64111;DHT22;50401;48.188;11.566;2023-03-16T03:13:15;3.35;79.16
64111;DHT22;50401;48.188;11.566;2023-03-16T03:15:41;3.31;79.12
64111;DHT22;50401;48.188;11.566;2023-03-16T03:18:06;3.19;79.28
64111;DHT22;50401;48.188;11.566;2023-03-16T03:20:32;3.21;79.41
64111;DHT22;50401;48.188;11.566;2023-03-16T03:22:57;3.08;79.62
64111;DHT22;50401;48.188;11.566;2023-03-16T03:25:22;2.83;79.91
64111;DHT22;50401;48.188;11.566;2023-03-16T03:27:49;2.13;81.81
64111;DHT22;50401;48.188;11.566;2023-03-16T03:30:19;2.09;82.03
64111;DHT22;50401;48.188;11.566;2023-03-16T03:32:44;1.93;82.70
64111;DHT22;50401;48.188;11.566;2023-03-16T03:35:11;1.86;82.92
64111;DHT22;50401;48.188;11.566;2023-03-16T03:37:38;1.55;83.72
64111;DHT22;50401;48.188;11.566;2023-03-16T03:40:05;1.65;83.56
64111;DHT22;50401;48.188;11.566;2023-03-16T03:42:31;1.66;83.51
64111;DHT22;50401;48.188;11.566;2023-03-16T03:44:56;1.62;83.79
64111;DHT22;50401;48.188;11.566;2023-03-16T03:47:21;1.69;83.82
64111;DHT22;50401;48.188;11.566;2023-03-16T03:49:47;1.63;83.42
64111;DHT22;50401;48.188;11.566;2023-03-16T03:52:12;1.80;83.43
64111;DHT22;50401;48.188;11.566;2023-03-16T03:54:38;2.00;82.68
64111;DHT22;50401;48.188;11.566;2023-03-16T03:57:04;1.99;82.53
64111;DHT22;50401;48.188;11.566;2023-03-16T03:59:29;1.94;82.29
64111;DHT22;50401;48.188;11.566;2023-03-16T04:01:55;1.92;82.80
64111;DHT22;50401;48.188;11.566;2023-03-16T04:04:20;1.83;83.04
64111;DHT22;50401;48.188;11.566;2023-03-16T04:06:46;1.48;84.44
64111;DHT22;50401;48.188;11.566;2023-03-16T04:09:11;1.70;84.07
64111;DHT22;50401;48.188;11.566;2023-03-16T04:11:37;1.63;83.89
64111;DHT22;50401;48.188;11.566;2023-03-16T04:14:03;1.48;84.48
64111;DHT22;50401;48.188;11.566;2023-03-16T04:16:29;1.66;84.34
64111;DHT22;50401;48.188;11.566;2023-03-16T04:18:55;1.92;83.74
64111;DHT22;50401;48.188;11.566;2023-03-16T04:21:21;1.79;83.17
64111;DHT22;50401;48.188;11.566;2023-03-16T04:23:48;1.89;83.39
64111;DHT22;50401;48.188;11.566;2023-03-16T04:26:13;1.80;83.22
64111;DHT22;50401;48.188;11.566;2023-03-16T04:28:39;1.72;83.38
64111;DHT22;50401;48.188;11.566;2023-03-16T04:31:07;1.86;83.16
64111;DHT22;50401;48.188;11.566;2023-03-16T04:33:34;1.63;83.71
64111;DHT22;50401;48.188;11.566;2023-03-16T04:36:00;1.70;83.53
64111;DHT22;50401;48.188;11.566;2023-03-16T04:38:27;1.80;83.35
64111;DHT22;50401;48.188;11.566;2023-03-16T04:40:53;1.84;82.87
64111;DHT22;50401;48.188;11.566;2023-03-16T04:43:18;1.76;83.19
64111;DHT22;50401;48.188;11.566;2023-03-16T04:45:44;1.96;82.94
64111;DHT22;50401;48.188;11.566;2023-03-16T04:48:09;1.93;82.80
64111;DHT22;50401;48.188;11.566;2023-03-16T04:50:35;1.94;82.80
64111;DHT22;50401;48.188;11.566;2023-03-16T04:53:00;1.66;83.62
64111;DHT22;50401;48.188;11.566;2023-03-16T04:55:26;1.47;84.56
64111;DHT22;50401;48.188;11.566;2023-03-16T04:57:51;1.66;83.90
64111;DHT22;50401;48.188;11.566;2023-03-16T05:00:17;1.70;83.80
64111;DHT22;50401;48.188;11.566;2023-03-16T05:02:46;1.66;84.10
64111;DHT22;50401;48.188;11.566;2023-03-16T05:05:12;1.42;84.63
64111;DHT22;50401;48.188;11.566;2023-03-16T05:07:37;1.55;84.79
64111;DHT22;50401;48.188;11.566;2023-03-16T05:10:03;1.62;84.42
64111;DHT22;50401;48.188;11.566;2023-03-16T05:12:29;1.28;85.66
64111;DHT22;50401;48.188;11.566;2023-03-16T05:14:54;1.19;85.82
64111;DHT22;50401;48.188;11.566;2023-03-16T05:17:20;1.27;85.59
64111;DHT22;50401;48.188;11.566;2023-03-16T05:19:46;1.20;85.84
64111;DHT22;50401;48.188;11.566;2023-03-16T05:22:11;1.10;86.18
64111;DHT22;50401;48.188;11.566;2023-03-16T05:24:37;1.10;86.16
64111;DHT22;50401;48.188;11.566;2023-03-16T05:27:02;1.30;85.04
64111;DHT22;50401;48.188;11.566;2023-03-16T05:29:28;1.38;84.59
64111;DHT22;50401;48.188;11.566;2023-03-16T05:31:55;1.35;84.82
64111;DHT22;50401;48.188;11.566;2023-03-16T05:34:21;1.00;85.85
64111;DHT22;50401;48.188;11.566;2023-03-16T05:36:47;0.86;86.31
64111;DHT22;50401;48.188;11.566;2023-03-16T05:39:12;0.85;86.64
64111;DHT22;50401;48.188;11.566;2023-03-16T05:41:38;0.86;86.55
64111;DHT22;50401;48.188;11.566;2023-03-16T05:44:03;0.75;86.65
64111;DHT22;50401;48.188;11.566;2023-03-16T05:46:29;0.93;85.71
64111;DHT22;50401;48.188;11.566;2023-03-16T05:48:54;0.79;86.63
64111;DHT22;50401;48.188;11.566;2023-03-16T05:51:20;0.83;86.52
64111;DHT22;50401;48.188;11.566;2023-03-16T05:53:45;0.96;86.73
64111;DHT22;50401;48.188;11.566;2023-03-16T05:56:12;0.96;86.43
64111;DHT22;50401;48.188;11.566;2023-03-16T05:58:37;1.07;86.91
64111;DHT22;50401;48.188;11.566;2023-03-16T06:01:02;1.33;85.34
64111;DHT22;50401;48.188;11.566;2023-03-16T06:03:29;1.45;85.20
64111;DHT22;50401;48.188;11.566;2023-03-16T06:05:55;1.48;85.05
64111;DHT22;50401;48.188;11.566;2023-03-16T06:08:20;1.89;83.80
64111;DHT22;50401;48.188;11.566;2023-03-16T06:10:46;2.07;82.69
64111;DHT22;50401;48.188;11.566;2023-03-16T06:13:12;1.72;83.63
64111;DHT22;50401;48.188;11.566;2023-03-16T06:15:37;1.94;82.63
64111;DHT22;50401;48.188;11.566;2023-03-16T06:18:03;2.07;82.81
64111;DHT22;50401;48.188;11.566;2023-03-16T06:20:28;2.52;81.64
64111;DHT22;50401;48.188;11.566;2023-03-16T06:22:53;2.63;80.65
64111;DHT22;50401;48.188;11.566;2023-03-16T06:25:19;2.52;80.77
64111;DHT22;50401;48.188;11.566;2023-03-16T06:27:44;3.04;80.19
64111;DHT22;50401;48.188;11.566;2023-03-16T06:30:11;3.23;79.11
64111;DHT22;50401;48.188;11.566;2023-03-16T06:32:38;2.76;79.39
64111;DHT22;50401;48.188;11.566;2023-03-16T06:35:06;2.98;79.66
64111;DHT22;50401;48.188;11.566;2023-03-16T06:37:32;3.55;78.93
64111;DHT22;50401;48.188;11.566;2023-03-16T06:39:58;3.50;78.16
64111;DHT22;50401;48.188;11.566;2023-03-16T06:42:23;3.59;77.35
64111;DHT22;50401;48.188;11.566;2023-03-16T06:44:49;3.70;77.04
64111;DHT22;50401;48.188;11.566;2023-03-16T06:47:15;3.73;77.16
64111;DHT22;50401;48.188;11.566;2023-03-16T06:49:40;3.80;76.16
64111;DHT22;50401;48.188;11.566;2023-03-16T06:52:06;4.19;75.59
64111;DHT22;50401;48.188;11.566;2023-03-16T06:54:31;3.52;77.64
64111;DHT22;50401;48.188;11.566;2023-03-16T06:56:59;3.43;78.13
64111;DHT22;50401;48.188;11.566;2023-03-16T06:59:24;3.28;77.47
64111;DHT22;50401;48.188;11.566;2023-03-16T07:01:49;4.37;75.90
64111;DHT22;50401;48.188;11.566;2023-03-16T07:04:15;3.59;74.99
64111;DHT22;50401;48.188;11.566;2023-03-16T07:06:40;3.44;76.35
64111;DHT22;50401;48.188;11.566;2023-03-16T07:09:06;4.89;72.71
64111;DHT22;50401;48.188;11.566;2023-03-16T07:11:31;4.79;73.37
64111;DHT22;50401;48.188;11.566;2023-03-16T07:13:57;5.89;71.18
64111;DHT22;50401;48.188;11.566;2023-03-16T07:16:23;6.10;69.20
64111;DHT22;50401;48.188;11.566;2023-03-16T07:18:48;6.89;65.04
64111;DHT22;50401;48.188;11.566;2023-03-16T07:21:14;6.62;65.10
64111;DHT22;50401;48.188;11.566;2023-03-16T07:23:39;8.95;60.41
64111;DHT22;50401;48.188;11.566;2023-03-16T07:26:05;8.32;60.68
64111;DHT22;50401;48.188;11.566;2023-03-16T07:28:33;7.34;60.46
64111;DHT22;50401;48.188;11.566;2023-03-16T07:30:58;7.43;60.69
64111;DHT22;50401;48.188;11.566;2023-03-16T07:33:23;5.37;67.73
64111;DHT22;50401;48.188;11.566;2023-03-16T07:35:49;3.95;72.82
64111;DHT22;50401;48.188;11.566;2023-03-16T07:38:16;3.43;74.18
64111;DHT22;50401;48.188;11.566;2023-03-16T07:40:44;2.88;76.22
64111;DHT22;50401;48.188;11.566;2023-03-16T07:43:09;2.90;77.40
64111;DHT22;50401;48.188;11.566;2023-03-16T07:45:34;3.42;76.00
64111;DHT22;50401;48.188;11.566;2023-03-16T07:48:00;2.88;77.84
64111;DHT22;50401;48.188;11.566;2023-03-16T07:50:26;2.98;77.03
64111;DHT22;50401;48.188;11.566;2023-03-16T07:52:51;2.75;77.86
64111;DHT22;50401;48.188;11.566;2023-03-16T07:55:17;2.64;78.43
64111;DHT22;50401;48.188;11.566;2023-03-16T07:57:42;2.00;80.32
64111;DHT22;50401;48.188;11.566;2023-03-16T08:00:12;2.59;79.37
64111;DHT22;50401;48.188;11.566;2023-03-16T08:02:38;2.24;80.78
64111;DHT22;50401;48.188;11.566;2023-03-16T08:05:04;2.32;80.13
64111;DHT22;50401;48.188;11.566;2023-03-16T08:07:29;2.07;80.36
64111;DHT22;50401;48.188;11.566;2023-03-16T08:09:56;2.10;80.96
64111;DHT22;50401;48.188;11.566;2023-03-16T08:12:21;1.96;81.07
64111;DHT22;50401;48.188;11.566;2023-03-16T08:14:47;2.17;80.79
64111;DHT22;50401;48.188;11.566;2023-03-16T08:17:12;1.99;82.49
64111;DHT22;50401;48.188;11.566;2023-03-16T08:19:37;2.49;81.12
64111;DHT22;50401;48.188;11.566;2023-03-16T08:22:04;1.99;81.95
64111;DHT22;50401;48.188;11.566;2023-03-16T08:24:30;2.03;82.58
64111;DHT22;50401;48.188;11.566;2023-03-16T08:26:57;2.17;82.11
64111;DHT22;50401;48.188;11.566;2023-03-16T08:29:24;2.18;82.23
64111;DHT22;50401;48.188;11.566;2023-03-16T08:31:51;2.35;81.34
64111;DHT22;50401;48.188;11.566;2023-03-16T08:34:16;2.77;80.19
64111;DHT22;50401;48.188;11.566;2023-03-16T08:36:42;2.69;79.41
64111;DHT22;50401;48.188;11.566;2023-03-16T08:39:08;2.22;81.25
64111;DHT22;50401;48.188;11.566;2023-03-16T08:41:34;2.45;80.82
64111;DHT22;50401;48.188;11.566;2023-03-16T08:43:59;2.36;81.01
64111;DHT22;50401;48.188;11.566;2023-03-16T08:46:26;2.87;79.95
64111;DHT22;50401;48.188;11.566;2023-03-16T08:48:51;3.25;78.64
64111;DHT22;50401;48.188;11.566;2023-03-16T08:51:17;3.80;77.05
64111;DHT22;50401;48.188;11.566;2023-03-16T08:53:43;3.43;77.02
64111;DHT22;50401;48.188;11.566;2023-03-16T08:56:11;2.93;79.32
64111;DHT22;50401;48.188;11.566;2023-03-16T08:58:38;2.84;79.35
64111;DHT22;50401;48.188;11.566;2023-03-16T09:01:04;2.93;79.94
64111;DHT22;50401;48.188;11.566;2023-03-16T09:03:31;3.18;78.33
64111;DHT22;50401;48.188;11.566;2023-03-16T09:06:16;3.97;77.23
64111;DHT22;50401;48.188;11.566;2023-03-16T09:08:42;3.82;76.37
64111;DHT22;50401;48.188;11.566;2023-03-16T09:11:15;4.91;73.41
64111;DHT22;50401;48.188;11.566;2023-03-16T09:13:40;6.35;69.55
64111;DHT22;50401;48.188;11.566;2023-03-16T09:16:08;6.86;67.48
64111;DHT22;50401;48.188;11.566;2023-03-16T09:18:34;6.27;67.29
64111;DHT22;50401;48.188;11.566;2023-03-16T09:21:03;6.21;68.97
64111;DHT22;50401;48.188;11.566;2023-03-16T09:23:29;5.95;69.87
64111;DHT22;50401;48.188;11.566;2023-03-16T09:26:03;5.27;73.09
64111;DHT22;50401;48.188;11.566;2023-03-16T09:28:30;5.23;71.35
64111;DHT22;50401;48.188;11.566;2023-03-16T09:30:56;5.48;71.99
64111;DHT22;50401;48.188;11.566;2023-03-16T09:33:23;6.03;70.71
64111;DHT22;50401;48.188;11.566;2023-03-16T09:35:49;6.83;68.61
64111;DHT22;50401;48.188;11.566;2023-03-16T09:38:17;5.95;69.24
64111;DHT22;50401;48.188;11.566;2023-03-16T09:40:44;5.80;70.36
64111;DHT22;50401;48.188;11.566;2023-03-16T09:46:10;6.13;69.99
64111;DHT22;50401;48.188;11.566;2023-03-16T09:48:39;6.06;70.05
64111;DHT22;50401;48.188;11.566;2023-03-16T09:51:16;5.28;71.51
64111;DHT22;50401;48.188;11.566;2023-03-16T09:53:45;5.89;71.17
64111;DHT22;50401;48.188;11.566;2023-03-16T09:56:28;6.56;68.66
64111;DHT22;50401;48.188;11.566;2023-03-16T09:58:57;6.71;68.38
64111;DHT22;50401;48.188;11.566;2023-03-16T10:12:15;6.59;68.13
64111;DHT22;50401;48.188;11.566;2023-03-16T10:14:45;6.00;69.70
64111;DHT22;50401;48.188;11.566;2023-03-16T10:17:17;6.06;68.82
64111;DHT22;50401;48.188;11.566;2023-03-16T10:19:53;5.80;71.12
64111;DHT22;50401;48.188;11.566;2023-03-16T10:22:29;5.50;70.69
64111;DHT22;50401;48.188;11.566;2023-03-16T10:27:58;5.83;69.94
64111;DHT22;50401;48.188;11.566;2023-03-16T10:30:31;5.80;70.73
64111;DHT22;50401;48.188;11.566;2023-03-16T10:33:21;5.38;73.28
64111;DHT22;50401;48.188;11.566;2023-03-16T10:35:56;5.63;72.76
64111;DHT22;50401;48.188;11.566;2023-03-16T10:38:40;5.30;72.70
64111;DHT22;50401;48.188;11.566;2023-03-16T10:44:09;5.36;73.06
64111;DHT22;50401;48.188;11.566;2023-03-16T10:46:46;5.30;71.07
64111;DHT22;50401;48.188;11.566;2023-03-16T10:51:57;5.59;69.87
64111;DHT22;50401;48.188;11.566;2023-03-16T10:54:30;5.23;71.80
64111;DHT22;50401;48.188;11.566;2023-03-16T10:56:58;5.34;72.41
64111;DHT22;50401;48.188;11.566;2023-03-16T10:59:30;5.23;71.85
64111;DHT22;50401;48.188;11.566;2023-03-16T11:01:57;5.22;71.55
64111;DHT22;50401;48.188;11.566;2023-03-16T11:04:23;4.79;73.01
64111;DHT22;50401;48.188;11.566;2023-03-16T11:06:54;4.72;72.98
64111;DHT22;50401;48.188;11.566;2023-03-16T11:09:25;4.95;73.41
64111;DHT22;50401;48.188;11.566;2023-03-16T11:11:58;4.95;73.22
64111;DHT22;50401;48.188;11.566;2023-03-16T11:14:26;5.05;73.00
64111;DHT22;50401;48.188;11.566;2023-03-16T11:17:06;4.88;74.16
64111;DHT22;50401;48.188;11.566;2023-03-16T11:19:49;5.15;73.89
64111;DHT22;50401;48.188;11.566;2023-03-16T11:22:19;5.40;73.64
64111;DHT22;50401;48.188;11.566;2023-03-16T11:27:35;5.13;73.66
64111;DHT22;50401;48.188;11.566;2023-03-16T11:32:50;5.62;73.17
64111;DHT22;50401;48.188;11.566;2023-03-16T11:35:19;5.37;73.36
64111;DHT22;50401;48.188;11.566;2023-03-16T11:43:26;5.48;72.53
64111;DHT22;50401;48.188;11.566;2023-03-16T11:57:52;5.36;71.61
64111;DHT22;50401;48.188;11.566;2023-03-16T12:03:38;5.78;71.55
64111;DHT22;50401;48.188;11.566;2023-03-16T12:06:26;6.03;70.62
64111;DHT22;50401;48.188;11.566;2023-03-16T12:12:04;6.17;71.04
64111;DHT22;50401;48.188;11.566;2023-03-16T12:14:37;5.76;72.03
64111;DHT22;50401;48.188;11.566;2023-03-16T12:17:26;5.92;72.77
64111;DHT22;50401;48.188;11.566;2023-03-16T12:22:35;6.41;71.07
64111;DHT22;50401;48.188;11.566;2023-03-16T12:25:11;6.58;71.10
64111;DHT22;50401;48.188;11.566;2023-03-16T12:27:40;6.71;69.99
64111;DHT22;50401;48.188;11.566;2023-03-16T12:33:00;6.76;68.26
64111;DHT22;50401;48.188;11.566;2023-03-16T12:35:44;6.93;67.38
64111;DHT22;50401;48.188;11.566;2023-03-16T12:43:51;6.86;67.53
64111;DHT22;50401;48.188;11.566;2023-03-16T12:46:27;7.01;67.94
64111;DHT22;50401;48.188;11.566;2023-03-16T12:49:01;7.21;66.50
64111;DHT22;50401;48.188;11.566;2023-03-16T12:51:40;7.43;65.44
64111;DHT22;50401;48.188;11.566;2023-03-16T12:54:23;7.10;63.27
64111;DHT22;50401;48.188;11.566;2023-03-16T12:56:51;7.18;63.72
64111;DHT22;50401;48.188;11.566;2023-03-16T12:59:39;7.43;63.39
64111;DHT22;50401;48.188;11.566;2023-03-16T13:02:20;7.59;63.06
64111;DHT22;50401;48.188;11.566;2023-03-16T13:04:55;7.58;64.67
64111;DHT22;50401;48.188;11.566;2023-03-16T13:07:24;7.59;63.62
64111;DHT22;50401;48.188;11.566;2023-03-16T13:09:55;7.56;61.27
64111;DHT22;50401;48.188;11.566;2023-03-16T13:12:29;7.36;61.31
64111;DHT22;50401;48.188;11.566;2023-03-16T13:14:57;7.60;62.27
64111;DHT22;50401;48.188;11.566;2023-03-16T13:17:31;7.74;60.87
64111;DHT22;50401;48.188;11.566;2023-03-16T13:19:59;7.77;60.67
64111;DHT22;50401;48.188;11.566;2023-03-16T13:22:28;7.99;58.70
64111;DHT22;50401;48.188;11.566;2023-03-16T13:24:59;7.84;56.23
64111;DHT22;50401;48.188;11.566;2023-03-16T13:27:37;7.84;57.35
64111;DHT22;50401;48.188;11.566;2023-03-16T13:30:19;7.78;55.47
64111;DHT22;50401;48.188;11.566;2023-03-16T13:32:46;7.78;55.38
64111;DHT22;50401;48.188;11.566;2023-03-16T13:35:16;7.97;53.86
64111;DHT22;50401;48.188;11.566;2023-03-16T13:37:42;8.13;55.85
64111;DHT22;50401;48.188;11.566;2023-03-16T13:40:19;7.95;54.11
64111;DHT22;50401;48.188;11.566;2023-03-16T13:42:48;8.02;54.36
64111;DHT22;50401;48.188;11.566;2023-03-16T13:45:32;8.19;53.77
64111;DHT22;50401;48.188;11.566;2023-03-16T13:47:59;8.13;54.74
64111;DHT22;50401;48.188;11.566;2023-03-16T13:50:26;8.24;55.37
64111;DHT22;50401;48.188;11.566;2023-03-16T13:53:00;8.42;57.03
64111;DHT22;50401;48.188;11.566;2023-03-16T13:55:31;8.29;55.39
64111;DHT22;50401;48.188;11.566;2023-03-16T13:57:57;8.37;56.78
64111;DHT22;50401;48.188;11.566;2023-03-16T14:00:25;8.39;56.37
64111;DHT22;50401;48.188;11.566;2023-03-16T14:02:53;8.47;56.40
64111;DHT22;50401;48.188;11.566;2023-03-16T14:05:28;8.59;56.56
64111;DHT22;50401;48.188;11.566;2023-03-16T14:07:55;8.61;57.06
64111;DHT22;50401;48.188;11.566;2023-03-16T14:10:30;8.54;56.50
64111;DHT22;50401;48.188;11.566;2023-03-16T14:12:57;8.64;56.47
64111;DHT22;50401;48.188;11.566;2023-03-16T14:15:30;8.68;57.44
64111;DHT22;50401;48.188;11.566;2023-03-16T14:18:17;8.65;55.29
64111;DHT22;50401;48.188;11.566;2023-03-16T14:20:54;8.61;52.65
64111;DHT22;50401;48.188;11.566;2023-03-16T14:23:23;8.63;53.23
64111;DHT22;50401;48.188;11.566;2023-03-16T14:25:48;8.65;53.78
64111;DHT22;50401;48.188;11.566;2023-03-16T14:28:26;8.68;55.51
64111;DHT22;50401;48.188;11.566;2023-03-16T14:30:54;8.53;55.75
64111;DHT22;50401;48.188;11.566;2023-03-16T14:33:29;8.74;57.20
64111;DHT22;50401;48.188;11.566;2023-03-16T14:35:57;8.82;56.74
64111;DHT22;50401;48.188;11.566;2023-03-16T14:40:55;8.60;54.14
64111;DHT22;50401;48.188;11.566;2023-03-16T14:43:27;8.71;55.21
64111;DHT22;50401;48.188;11.566;2023-03-16T14:45:54;8.63;55.83
64111;DHT22;50401;48.188;11.566;2023-03-16T14:48:20;8.75;56.36
64111;DHT22;50401;48.188;11.566;2023-03-16T14:50:53;8.82;56.09
64111;DHT22;50401;48.188;11.566;2023-03-16T14:53:20;8.99;56.60
64111;DHT22;50401;48.188;11.566;2023-03-16T14:55:46;8.89;56.69
64111;DHT22;50401;48.188;11.566;2023-03-16T14:58:12;8.98;56.91
64111;DHT22;50401;48.188;11.566;2023-03-16T15:00:38;8.95;55.13
64111;DHT22;50401;48.188;11.566;2023-03-16T15:03:10;8.88;55.44
64111;DHT22;50401;48.188;11.566;2023-03-16T15:05:38;8.84;56.48
64111;DHT22;50401;48.188;11.566;2023-03-16T15:08:11;8.92;56.03
64111;DHT22;50401;48.188;11.566;2023-03-16T15:10:38;8.88;56.14
64111;DHT22;50401;48.188;11.566;2023-03-16T15:13:14;8.77;56.43
64111;DHT22;50401;48.188;11.566;2023-03-16T15:15:59;8.82;56.77
64111;DHT22;50401;48.188;11.566;2023-03-16T15:18:25;8.78;57.18
64111;DHT22;50401;48.188;11.566;2023-03-16T15:20:51;8.80;57.09
64111;DHT22;50401;48.188;11.566;2023-03-16T15:23:18;8.80;57.07
64111;DHT22;50401;48.188;11.566;2023-03-16T15:25:44;8.75;57.01
64111;DHT22;50401;48.188;11.566;2023-03-16T15:28:19;8.74;58.10
64111;DHT22;50401;48.188;11.566;2023-03-16T15:30:49;8.81;57.24
64111;DHT22;50401;48.188;11.566;2023-03-16T15:33:15;8.74;57.35
64111;DHT22;50401;48.188;11.566;2023-03-16T15:35:42;8.78;57.09
64111;DHT22;50401;48.188;11.566;2023-03-16T15:38:50;8.87;56.69
64111;DHT22;50401;48.188;11.566;2023-03-16T15:41:09;8.89;55.82
64111;DHT22;50401;48.188;11.566;2023-03-16T15:43:35;8.91;56.37
64111;DHT22;50401;48.188;11.566;2023-03-16T15:46:02;8.78;56.64
64111;DHT22;50401;48.188;11.566;2023-03-16T15:48:29;8.78;56.68
64111;DHT22;50401;48.188;11.566;2023-03-16T15:50:58;8.75;57.11
64111;DHT22;50401;48.188;11.566;2023-03-16T15:53:30;8.75;57.09
64111;DHT22;50401;48.188;11.566;2023-03-16T15:56:02;8.82;56.77
64111;DHT22;50401;48.188;11.566;2023-03-16T15:58:29;8.65;56.84
64111;DHT22;50401;48.188;11.566;2023-03-16T16:00:57;8.75;56.58
64111;DHT22;50401;48.188;11.566;2023-03-16T16:03:24;8.56;56.81
64111;DHT22;50401;48.188;11.566;2023-03-16T16:05:50;8.64;57.15
64111;DHT22;50401;48.188;11.566;2023-03-16T16:08:16;8.61;57.41
64111;DHT22;50401;48.188;11.566;2023-03-16T16:10:42;8.57;57.23
64111;DHT22;50401;48.188;11.566;2023-03-16T16:13:12;8.43;57.49
64111;DHT22;50401;48.188;11.566;2023-03-16T16:15:38;8.45;57.57
64111;DHT22;50401;48.188;11.566;2023-03-16T16:18:27;8.49;57.31
64111;DHT22;50401;48.188;11.566;2023-03-16T16:20:55;8.56;57.29
64111;DHT22;50401;48.188;11.566;2023-03-16T16:23:22;8.54;57.65
64111;DHT22;50401;48.188;11.566;2023-03-16T16:25:47;8.49;57.75
64111;DHT22;50401;48.188;11.566;2023-03-16T16:28:32;8.56;57.42
64111;DHT22;50401;48.188;11.566;2023-03-16T16:30:59;8.52;57.44
64111;DHT22;50401;48.188;11.566;2023-03-16T16:33:30;8.56;57.33
64111;DHT22;50401;48.188;11.566;2023-03-16T16:35:58;8.52;57.37
64111;DHT22;50401;48.188;11.566;2023-03-16T16:38:25;8.45;57.87
64111;DHT22;50401;48.188;11.566;2023-03-16T16:40:52;8.47;57.57
64111;DHT22;50401;48.188;11.566;2023-03-16T16:43:51;8.39;57.52
64111;DHT22;50401;48.188;11.566;2023-03-16T16:46:13;8.39;57.32
64111;DHT22;50401;48.188;11.566;2023-03-16T16:49:03;8.42;57.16
64111;DHT22;50401;48.188;11.566;2023-03-16T16:51:32;8.37;57.53